Time;durP1;ratioP1;P1;durP2;ratioP2;P2;SDS_P1;SDS_P2;PMS_P1;PMS_P2;Temp;Humidity;BMP_temperature;BMP_pressure;BME280_temperature;BME280_humidity;BME280_pressure;Samples;Min_cycle;Max_cycle;Signal;HPM_P1;HPM_P2
2023/06/24 00:00:59;;;;;;;9.40;7.45;;;19.60;99.90;;;;;;5032382;28;20033;-72
2023/06/24 00:03:25;;;;;;;11.13;7.68;;;18.60;99.90;;;;;;5032551;28;20084;-72
2023/06/24 00:05:50;;;;;;;16.27;7.43;;;18.40;99.90;;;;;;5015156;28;20037;-73
2023/06/24 00:08:21;;;;;;;15.63;7.38;;;18.40;99.90;;;;;;5014813;28;20443;-73
2023/06/24 00:10:46;;;;;;;10.02;7.57;;;18.50;99.90;;;;;;5032254;28;20112;-73
2023/06/24 00:13:14;;;;;;;10.27;7.18;;;18.50;99.90;;;;;;5014510;28;20487;-71
2023/06/24 00:15:42;;;;;;;8.57;6.93;;;18.50;99.90;;;;;;5014222;28;20133;-73
2023/06/24 00:18:09;;;;;;;9.65;7.63;;;18.50;99.90;;;;;;5014017;28;20382;-72
2023/06/24 00:20:35;;;;;;;9.52;8.18;;;18.40;99.90;;;;;;5014383;28;20508;-72
2023/06/24 00:23:01;;;;;;;9.38;8.38;;;18.20;99.90;;;;;;5014169;28;20045;-72
2023/06/24 00:25:27;;;;;;;11.07;7.55;;;18.30;99.90;;;;;;5014121;28;20075;-72
2023/06/24 00:27:52;;;;;;;12.25;7.90;;;18.20;99.90;;;;;;5013699;28;20048;-72
2023/06/24 00:30:18;;;;;;;8.48;6.57;;;18.50;99.90;;;;;;5031609;28;20038;-73
2023/06/24 00:32:44;;;;;;;7.95;7.13;;;18.40;99.90;;;;;;5014400;28;20041;-74
2023/06/24 00:35:12;;;;;;;11.07;7.95;;;18.30;99.90;;;;;;4997632;28;20535;-73
2023/06/24 00:37:38;;;;;;;10.77;7.43;;;19.10;99.90;;;;;;4997184;28;20038;-73
2023/06/24 00:40:04;;;;;;;10.00;7.22;;;18.10;99.90;;;;;;5031760;28;20076;-72
2023/06/24 00:42:31;;;;;;;11.10;7.70;;;18.20;99.90;;;;;;5014266;28;20061;-73
2023/06/24 00:44:57;;;;;;;12.00;7.53;;;18.20;99.90;;;;;;5031668;28;20044;-73
2023/06/24 00:47:23;;;;;;;9.98;8.27;;;18.10;99.90;;;;;;5031096;28;20041;-72
2023/06/24 00:49:49;;;;;;;12.45;8.15;;;18.10;99.90;;;;;;5013762;28;20037;-73
2023/06/24 00:52:16;;;;;;;10.15;7.78;;;18.10;99.90;;;;;;5013789;28;20049;-74
2023/06/24 00:54:44;;;;;;;9.07;7.63;;;18.00;99.90;;;;;;4997590;28;20041;-72
2023/06/24 00:57:10;;;;;;;11.45;7.70;;;18.00;99.90;;;;;;4997163;28;20037;-72
2023/06/24 00:59:37;;;;;;;9.98;7.90;;;18.00;99.90;;;;;;5018374;28;20037;-73
2023/06/24 01:02:04;;;;;;;9.15;7.78;;;18.00;99.90;;;;;;5019110;28;20046;-73
2023/06/24 01:04:33;;;;;;;13.80;7.97;;;18.00;99.90;;;;;;5002241;28;20042;-74
2023/06/24 01:07:00;;;;;;;11.68;8.40;;;18.10;99.90;;;;;;5013518;28;20204;-73
2023/06/24 01:09:25;;;;;;;10.80;8.23;;;18.40;99.90;;;;;;5013602;28;20045;-73
2023/06/24 01:11:52;;;;;;;11.85;9.23;;;17.90;99.90;;;;;;5013736;28;20037;-73
2023/06/24 01:14:23;;;;;;;13.35;8.23;;;18.10;99.90;;;;;;5013731;28;20343;-73
2023/06/24 01:16:59;;;;;;;11.70;9.18;;;18.20;99.90;;;;;;5013610;28;20038;-73
2023/06/24 01:19:33;;;;;;;10.38;9.00;;;17.90;99.90;;;;;;5013321;28;20038;-73
2023/06/24 01:22:15;;;;;;;12.60;9.05;;;18.00;99.90;;;;;;5016943;28;20042;-72
2023/06/24 01:25:35;;;;;;;10.48;9.38;;;17.80;99.90;;;;;;5017475;28;20046;-73
2023/06/24 01:28:26;;;;;;;11.10;8.93;;;17.90;99.90;;;;;;4992954;28;20046;-72
2023/06/24 01:30:52;;;;;;;11.88;9.98;;;17.80;99.90;;;;;;5000178;28;20096;-72
2023/06/24 01:33:29;;;;;;;11.70;9.65;;;17.80;99.90;;;;;;5017228;28;20081;-72
2023/06/24 01:35:56;;;;;;;16.80;10.10;;;17.70;99.90;;;;;;5017088;28;20045;-73
2023/06/24 01:38:35;;;;;;;14.45;10.07;;;17.60;99.90;;;;;;5016444;28;20470;-73
2023/06/24 01:41:03;;;;;;;14.05;10.20;;;17.80;99.90;;;;;;5017284;28;20041;-72
2023/06/24 01:43:29;;;;;;;11.98;9.02;;;17.50;99.90;;;;;;5017360;28;20460;-72
2023/06/24 01:45:56;;;;;;;12.70;9.75;;;18.50;99.90;;;;;;5017362;28;20041;-72
2023/06/24 01:48:32;;;;;;;11.43;9.18;;;17.60;99.90;;;;;;5016319;28;20046;-73
2023/06/24 01:51:12;;;;;;;10.93;9.05;;;17.60;99.90;;;;;;5016872;28;20041;-73
2023/06/24 01:53:44;;;;;;;11.25;9.63;;;17.70;99.90;;;;;;5017588;28;20409;-73
2023/06/24 01:56:13;;;;;;;12.57;10.63;;;17.60;99.90;;;;;;5017529;28;20041;-72
2023/06/24 01:58:42;;;;;;;13.32;10.40;;;17.50;99.90;;;;;;5016387;28;20072;-72
2023/06/24 02:01:08;;;;;;;12.48;9.80;;;17.50;99.90;;;;;;5000435;28;20080;-72
2023/06/24 02:03:35;;;;;;;12.30;9.52;;;17.40;99.90;;;;;;5016718;28;20060;-72
2023/06/24 02:06:04;;;;;;;12.93;10.35;;;17.40;99.90;;;;;;5016682;28;20073;-72
2023/06/24 02:08:33;;;;;;;12.88;9.73;;;17.30;99.90;;;;;;5016303;28;20465;-72
2023/06/24 02:11:00;;;;;;;12.25;10.23;;;17.40;99.90;;;;;;5016791;28;20100;-72
2023/06/24 02:13:27;;;;;;;13.45;9.60;;;17.30;99.90;;;;;;5034184;28;20447;-72
2023/06/24 02:15:54;;;;;;;12.30;9.68;;;17.30;99.90;;;;;;5016596;28;20037;-72
2023/06/24 02:18:23;;;;;;;13.95;10.68;;;17.30;99.90;;;;;;4999336;28;20045;-72
2023/06/24 02:20:50;;;;;;;12.68;9.93;;;17.60;99.90;;;;;;5034130;28;20068;-72
2023/06/24 02:23:16;;;;;;;13.38;10.55;;;17.30;99.90;;;;;;5016431;28;20041;-72
2023/06/24 02:25:42;;;;;;;10.75;9.60;;;17.30;99.90;;;;;;5016337;28;20037;-72
2023/06/24 02:28:09;;;;;;;13.15;10.55;;;17.30;99.90;;;;;;5015827;28;20037;-72
2023/06/24 02:30:37;;;;;;;13.50;9.88;;;17.30;99.90;;;;;;5033850;28;20041;-72
2023/06/24 02:33:03;;;;;;;13.27;10.35;;;17.60;99.90;;;;;;5016006;28;20516;-72
2023/06/24 02:35:29;;;;;;;13.13;10.27;;;17.10;99.90;;;;;;5015915;28;20079;-72
2023/06/24 02:37:54;;;;;;;13.23;10.32;;;17.10;99.90;;;;;;5015672;28;20080;-72
2023/06/24 02:40:20;;;;;;;12.98;10.77;;;17.10;99.90;;;;;;5015881;28;20520;-72
2023/06/24 02:42:46;;;;;;;12.00;10.05;;;17.20;99.90;;;;;;5016293;28;20095;-73
2023/06/24 02:45:12;;;;;;;15.90;11.50;;;17.60;99.90;;;;;;5015778;28;20041;-72
2023/06/24 02:47:38;;;;;;;14.13;10.43;;;17.30;99.90;;;;;;5015443;28;20520;-72
2023/06/24 02:50:07;;;;;;;11.85;10.32;;;17.10;99.90;;;;;;5015704;28;20501;-72
2023/06/24 02:52:36;;;;;;;17.02;10.93;;;17.00;99.90;;;;;;5015826;28;20177;-72
2023/06/24 02:55:03;;;;;;;17.60;10.93;;;16.80;99.90;;;;;;5015669;28;20034;-73
2023/06/24 02:57:29;;;;;;;12.52;10.07;;;17.00;99.90;;;;;;5015523;28;20042;-72
2023/06/24 02:59:55;;;;;;;15.20;10.93;;;17.00;99.90;;;;;;5015639;28;20497;-72
2023/06/24 03:02:22;;;;;;;15.20;10.05;;;17.10;99.90;;;;;;5015831;28;20045;-72
2023/06/24 03:04:50;;;;;;;15.25;10.93;;;17.10;99.90;;;;;;5015537;28;20512;-72
2023/06/24 03:07:20;;;;;;;12.95;9.88;;;16.80;99.90;;;;;;4998714;28;20539;-72
2023/06/24 03:09:46;;;;;;;15.20;10.90;;;17.00;99.90;;;;;;5015295;28;20037;-72
2023/06/24 03:12:12;;;;;;;15.05;11.50;;;16.90;99.90;;;;;;5015787;28;20575;-72
2023/06/24 03:14:38;;;;;;;15.73;11.70;;;16.70;99.90;;;;;;4998995;28;20041;-73
2023/06/24 03:17:04;;;;;;;12.45;10.27;;;16.80;99.90;;;;;;5017568;28;20068;-72
2023/06/24 03:19:29;;;;;;;17.15;10.75;;;16.80;99.90;;;;;;5022006;28;20037;-73
2023/06/24 03:21:55;;;;;;;14.25;10.80;;;16.90;99.90;;;;;;5038667;28;20105;-72
2023/06/24 03:24:21;;;;;;;13.45;10.93;;;17.20;99.90;;;;;;5021217;28;20033;-72
2023/06/24 03:26:46;;;;;;;12.80;11.02;;;16.80;99.90;;;;;;4999596;28;20055;-72
2023/06/24 03:29:12;;;;;;;15.38;11.25;;;16.90;99.90;;;;;;4998673;28;20116;-72
2023/06/24 03:31:43;;;;;;;15.18;11.55;;;17.30;99.90;;;;;;5015394;28;20311;-72
2023/06/24 03:34:10;;;;;;;15.10;10.63;;;16.70;99.90;;;;;;5032830;28;20038;-72
2023/06/24 03:36:38;;;;;;;13.68;10.63;;;17.70;99.90;;;;;;4998642;28;20048;-72
2023/06/24 03:39:04;;;;;;;14.18;10.93;;;16.70;99.90;;;;;;5015438;28;20117;-72
2023/06/24 03:41:30;;;;;;;11.10;9.88;;;16.70;99.90;;;;;;4999144;28;20416;-72
2023/06/24 03:43:55;;;;;;;14.48;10.95;;;16.70;99.90;;;;;;5014089;28;20120;-72
2023/06/24 03:46:21;;;;;;;13.90;10.75;;;16.70;99.90;;;;;;5014990;28;20092;-72
2023/06/24 03:48:47;;;;;;;15.90;12.05;;;16.70;99.90;;;;;;5014316;28;20566;-72
2023/06/24 03:51:13;;;;;;;16.45;10.50;;;16.70;99.90;;;;;;5014570;28;20383;-72
2023/06/24 03:53:38;;;;;;;14.30;10.82;;;16.80;99.90;;;;;;5032303;28;20493;-72
2023/06/24 03:56:04;;;;;;;15.43;11.13;;;17.00;99.90;;;;;;4998056;28;20045;-72
2023/06/24 03:58:30;;;;;;;13.57;10.93;;;16.80;99.90;;;;;;5013898;28;20504;-72
2023/06/24 04:00:59;;;;;;;17.90;11.73;;;16.80;99.90;;;;;;5014417;28;20038;-73
2023/06/24 04:03:28;;;;;;;12.75;10.55;;;16.90;99.90;;;;;;5014502;28;20044;-72
2023/06/24 04:05:55;;;;;;;12.82;10.48;;;16.80;99.90;;;;;;5032791;28;20053;-72
2023/06/24 04:08:21;;;;;;;14.40;10.13;;;17.00;99.90;;;;;;5013796;28;20641;-72
2023/06/24 04:10:47;;;;;;;14.13;11.27;;;16.90;99.90;;;;;;5014372;28;20052;-72
2023/06/24 04:13:13;;;;;;;14.30;11.13;;;;;;;;;;5014371;28;20045;-73
2023/06/24 04:15:38;;;;;;;14.57;10.93;;;17.00;99.90;;;;;;5014412;28;20037;-72
2023/06/24 04:18:04;;;;;;;15.25;10.85;;;17.30;99.90;;;;;;5031482;28;20048;-72
2023/06/24 04:20:30;;;;;;;15.15;10.43;;;17.10;99.90;;;;;;5014108;28;20045;-72
2023/06/24 04:22:55;;;;;;;15.25;10.80;;;17.00;99.90;;;;;;4998272;28;20401;-72
2023/06/24 04:25:21;;;;;;;13.70;11.32;;;17.00;99.90;;;;;;5014119;28;20096;-72
2023/06/24 04:27:47;;;;;;;12.57;10.07;;;17.00;99.90;;;;;;5013724;28;20516;-72
2023/06/24 04:30:12;;;;;;;19.10;13.38;;;17.10;99.90;;;;;;5014054;28;20037;-72
2023/06/24 04:32:38;;;;;;;13.38;10.65;;;17.20;99.90;;;;;;5014147;28;20056;-71
2023/06/24 04:35:04;;;;;;;16.55;10.77;;;17.30;99.90;;;;;;5014269;28;20091;-72
2023/06/24 04:37:30;;;;;;;16.65;11.30;;;17.40;99.90;;;;;;5013562;28;20048;-72
2023/06/24 04:39:56;;;;;;;16.73;10.38;;;17.40;99.90;;;;;;5013961;28;20088;-72
2023/06/24 04:42:23;;;;;;;12.95;10.75;;;17.40;99.90;;;;;;5014369;28;20041;-72
2023/06/24 04:44:50;;;;;;;12.88;10.13;;;17.30;99.90;;;;;;5013934;28;20041;-72
2023/06/24 04:47:19;;;;;;;15.60;10.18;;;17.40;99.90;;;;;;5013404;28;20120;-72
2023/06/24 04:49:45;;;;;;;12.35;10.02;;;17.70;99.90;;;;;;5013623;28;20037;-72
2023/06/24 04:52:11;;;;;;;13.13;9.48;;;17.60;99.90;;;;;;4997699;28;20038;-72
2023/06/24 04:54:37;;;;;;;11.93;9.35;;;17.70;99.90;;;;;;5014984;28;20041;-72
2023/06/24 04:57:08;;;;;;;12.68;9.90;;;17.60;99.90;;;;;;5001180;28;20057;-72
2023/06/24 04:59:34;;;;;;;10.30;9.25;;;;;;;;;;5017909;28;20485;-72
2023/06/24 05:01:59;;;;;;;10.18;9.07;;;17.90;99.90;;;;;;5017990;28;20047;-72
2023/06/24 05:04:25;;;;;;;14.55;10.80;;;17.90;99.90;;;;;;5017772;28;20037;-72
2023/06/24 05:06:51;;;;;;;13.50;10.68;;;18.00;99.90;;;;;;5017267;28;20064;-72
2023/06/24 05:09:17;;;;;;;12.48;9.68;;;18.00;99.90;;;;;;5017584;28;20041;-72
2023/06/24 05:11:43;;;;;;;15.05;9.23;;;18.20;99.90;;;;;;5017690;28;20041;-72
2023/06/24 05:14:08;;;;;;;16.65;11.18;;;18.20;99.90;;;;;;5018033;28;20038;-72
2023/06/24 05:16:34;;;;;;;13.02;10.25;;;;;;;;;;5017421;28;20088;-73
2023/06/24 05:19:00;;;;;;;15.45;10.27;;;18.40;99.90;;;;;;5016560;28;20041;-72
2023/06/24 05:21:26;;;;;;;15.15;10.40;;;18.30;99.90;;;;;;5017730;28;20051;-74
2023/06/24 05:23:51;;;;;;;13.18;10.02;;;18.70;99.90;;;;;;5035243;28;20080;-72
2023/06/24 05:26:17;;;;;;;13.63;10.23;;;;;;;;;;5035345;28;20033;-72
2023/06/24 05:28:43;;;;;;;14.07;10.68;;;18.60;99.90;;;;;;5000432;28;20087;-70
2023/06/24 05:31:08;;;;;;;12.80;10.55;;;18.90;99.90;;;;;;5016272;28;20037;-72
2023/06/24 05:33:34;;;;;;;14.60;10.38;;;19.10;99.90;;;;;;5017613;28;20046;-72
2023/06/24 05:36:00;;;;;;;14.73;9.77;;;19.10;99.90;;;;;;5020404;28;20045;-73
2023/06/24 05:38:25;;;;;;;13.50;10.57;;;20.20;99.90;;;;;;5006614;28;20126;-73
2023/06/24 05:40:51;;;;;;;14.48;10.43;;;19.80;99.90;;;;;;5039987;28;20038;-73
2023/06/24 05:43:16;;;;;;;12.98;9.15;;;19.60;99.90;;;;;;5019671;28;20501;-72
2023/06/24 05:45:43;;;;;;;12.82;8.95;;;19.40;99.90;;;;;;5017935;28;20092;-72
2023/06/24 05:48:09;;;;;;;14.95;10.23;;;19.70;99.90;;;;;;5016971;28;20045;-73
2023/06/24 05:50:34;;;;;;;11.70;9.43;;;19.70;99.90;;;;;;5017355;28;20042;-73
2023/06/24 05:53:00;;;;;;;13.38;10.68;;;19.80;99.90;;;;;;5017210;28;20041;-72
2023/06/24 05:55:25;;;;;;;14.00;10.40;;;20.10;99.90;;;;;;5034539;28;20042;-73
2023/06/24 05:57:51;;;;;;;13.48;9.98;;;20.30;99.90;;;;;;5034055;28;20416;-72
2023/06/24 06:00:18;;;;;;;11.63;9.27;;;20.70;99.90;;;;;;5016504;28;20038;-73
2023/06/24 06:02:44;;;;;;;13.20;9.43;;;20.50;99.90;;;;;;5000651;28;20529;-73
2023/06/24 06:05:09;;;;;;;14.93;9.98;;;20.90;99.90;;;;;;5016735;28;20045;-72
2023/06/24 06:07:38;;;;;;;12.40;9.25;;;21.20;99.90;;;;;;5015435;28;20502;-72
2023/06/24 06:10:05;;;;;;;12.73;8.65;;;21.30;99.90;;;;;;4999973;28;20048;-72
2023/06/24 06:12:30;;;;;;;10.98;9.40;;;21.30;99.90;;;;;;5016478;28;20049;-73
2023/06/24 06:14:56;;;;;;;13.20;9.40;;;22.30;99.90;;;;;;5016378;28;20041;-74
2023/06/24 06:17:23;;;;;;;11.93;9.80;;;21.40;99.90;;;;;;5016202;28;20045;-73
2023/06/24 06:19:49;;;;;;;13.38;9.43;;;21.60;99.90;;;;;;5016483;28;20571;-71
2023/06/24 06:22:15;;;;;;;14.60;8.90;;;21.40;99.90;;;;;;5016402;28;20117;-73
2023/06/24 06:24:41;;;;;;;14.05;10.07;;;22.20;99.90;;;;;;5000230;28;20037;-73
2023/06/24 06:27:10;;;;;;;14.73;10.13;;;21.60;99.90;;;;;;5000378;28;20195;-73
2023/06/24 06:29:36;;;;;;;13.35;10.35;;;21.50;99.90;;;;;;5017582;28;20052;-72
2023/06/24 06:32:01;;;;;;;11.45;9.10;;;21.40;99.90;;;;;;5016694;28;20042;-73
2023/06/24 06:34:27;;;;;;;11.05;9.13;;;21.60;99.90;;;;;;5035327;28;20045;-74
2023/06/24 06:36:53;;;;;;;14.13;10.45;;;21.50;99.90;;;;;;5034525;28;20041;-73
2023/06/24 06:39:18;;;;;;;15.05;11.20;;;21.50;99.90;;;;;;5000866;28;20128;-73
2023/06/24 06:41:44;;;;;;;17.10;11.23;;;21.40;99.90;;;;;;5017362;28;20033;-74
2023/06/24 06:44:09;;;;;;;12.95;10.98;;;21.50;99.90;;;;;;5017886;28;20037;-72
2023/06/24 06:46:35;;;;;;;14.20;10.60;;;21.80;99.90;;;;;;5018834;28;20541;-72
2023/06/24 06:49:01;;;;;;;14.65;11.77;;;21.70;99.90;;;;;;5036157;28;20068;-72
2023/06/24 06:51:26;;;;;;;14.68;11.23;;;21.80;99.90;;;;;;5018489;28;20429;-72
2023/06/24 06:53:52;;;;;;;15.13;10.55;;;21.80;99.90;;;;;;5035475;28;20042;-72
2023/06/24 06:56:28;;;;;;;17.13;11.50;;;21.90;99.90;;;;;;5017017;28;20064;-72
2023/06/24 06:58:53;;;;;;;13.55;10.57;;;21.80;99.90;;;;;;5015855;28;20505;-72
2023/06/24 07:01:19;;;;;;;14.80;11.23;;;22.10;99.90;;;;;;5016749;28;20079;-72
2023/06/24 07:03:45;;;;;;;13.70;10.45;;;22.10;99.90;;;;;;5016645;28;20125;-73
2023/06/24 07:06:11;;;;;;;14.02;11.43;;;22.00;99.90;;;;;;5016750;28;20516;-73
2023/06/24 07:08:36;;;;;;;17.23;10.95;;;22.20;99.90;;;;;;5015995;28;20045;-72
2023/06/24 07:11:03;;;;;;;16.27;11.45;;;22.50;99.90;;;;;;5016664;28;20565;-72
2023/06/24 07:13:28;;;;;;;14.30;11.45;;;22.30;99.90;;;;;;5016525;28;20041;-72
2023/06/24 07:15:54;;;;;;;15.70;10.63;;;22.50;99.90;;;;;;5016461;28;20414;-72
2023/06/24 07:18:19;;;;;;;13.50;9.80;;;22.30;99.90;;;;;;5014764;28;20095;-72
2023/06/24 07:20:45;;;;;;;13.93;10.73;;;22.60;99.90;;;;;;5016484;28;20033;-72
2023/06/24 07:23:11;;;;;;;15.15;10.95;;;22.60;99.90;;;;;;5016958;28;20037;-72
2023/06/24 07:25:37;;;;;;;12.85;10.07;;;22.50;99.90;;;;;;5016412;28;20045;-72
2023/06/24 07:28:03;;;;;;;14.07;10.43;;;22.40;99.90;;;;;;4999522;28;20037;-72
2023/06/24 07:30:28;;;;;;;13.95;9.93;;;22.50;99.90;;;;;;5016904;28;20045;-72
2023/06/24 07:32:54;;;;;;;17.80;10.75;;;22.60;99.90;;;;;;5016632;28;20084;-72
2023/06/24 07:35:19;;;;;;;12.75;9.40;;;22.80;99.90;;;;;;5015910;28;20053;-72
2023/06/24 07:37:45;;;;;;;13.10;9.57;;;22.50;99.90;;;;;;5015945;28;20048;-72
2023/06/24 07:40:11;;;;;;;12.30;9.65;;;22.50;99.90;;;;;;5016451;28;20476;-72
2023/06/24 07:42:37;;;;;;;12.60;9.20;;;22.90;99.90;;;;;;5016301;28;20076;-72
2023/06/24 07:45:03;;;;;;;12.43;9.15;;;22.50;99.90;;;;;;5016496;28;20038;-72
2023/06/24 07:47:29;;;;;;;11.90;8.93;;;22.60;99.90;;;;;;5015622;28;20045;-72
2023/06/24 07:49:54;;;;;;;13.40;8.85;;;22.70;99.90;;;;;;5015303;28;20609;-72
2023/06/24 07:52:20;;;;;;;14.02;9.02;;;22.90;99.90;;;;;;5015667;28;20048;-72
2023/06/24 07:54:45;;;;;;;11.10;9.05;;;23.10;99.90;;;;;;5015650;28;20413;-72
2023/06/24 07:57:11;;;;;;;10.98;9.07;;;22.90;99.90;;;;;;5019132;28;20080;-73
2023/06/24 07:59:37;;;;;;;14.82;8.90;;;23.00;99.90;;;;;;5020735;28;20033;-73
2023/06/24 08:02:03;;;;;;;11.38;8.73;;;22.90;99.90;;;;;;5020806;28;20037;-73
2023/06/24 08:04:28;;;;;;;8.98;7.97;;;23.00;99.90;;;;;;5016123;28;20087;-72
2023/06/24 08:06:54;;;;;;;15.13;8.90;;;23.00;99.90;;;;;;5015494;28;20044;-73
2023/06/24 08:09:19;;;;;;;9.77;8.00;;;23.10;99.90;;;;;;5015121;28;20104;-72
2023/06/24 08:11:45;;;;;;;12.10;9.07;;;23.20;99.90;;;;;;4999643;28;20038;-72
2023/06/24 08:14:11;;;;;;;12.88;8.63;;;23.40;99.90;;;;;;5015993;28;20042;-73
2023/06/24 08:16:37;;;;;;;12.88;8.55;;;23.30;99.90;;;;;;5015883;28;20041;-73
2023/06/24 08:19:04;;;;;;;11.90;8.63;;;23.50;99.90;;;;;;5014428;28;20075;-71
2023/06/24 08:21:29;;;;;;;15.75;8.82;;;23.60;99.90;;;;;;5015592;28;20412;-73
2023/06/24 08:23:55;;;;;;;11.70;8.65;;;23.60;99.90;;;;;;5015282;28;20095;-73
2023/06/24 08:26:21;;;;;;;10.27;7.72;;;23.70;99.90;;;;;;4998794;28;20563;-73
2023/06/24 08:28:47;;;;;;;11.55;8.18;;;23.80;99.90;;;;;;5014137;28;20493;-74
2023/06/24 08:31:13;;;;;;;9.48;7.03;;;23.90;99.90;;;;;;5013671;28;20045;-74
2023/06/24 08:33:39;;;;;;;13.60;8.30;;;23.80;99.90;;;;;;5015529;28;20428;-73
2023/06/24 08:36:04;;;;;;;11.75;7.68;;;23.90;99.90;;;;;;5014941;28;20137;-73
2023/06/24 08:38:30;;;;;;;10.73;8.02;;;23.80;99.90;;;;;;4997961;28;20072;-73
2023/06/24 08:40:56;;;;;;;15.00;7.75;;;24.00;99.90;;;;;;5014903;28;20037;-72
2023/06/24 08:43:21;;;;;;;10.63;7.32;;;23.90;99.90;;;;;;5032564;28;20041;-72
2023/06/24 08:45:47;;;;;;;9.32;6.82;;;24.30;99.90;;;;;;5032540;28;20624;-71
2023/06/24 08:48:14;;;;;;;9.88;6.68;;;24.60;99.90;;;;;;5014199;28;20042;-70
2023/06/24 08:50:52;;;;;;;10.23;6.68;;;24.70;99.90;;;;;;4998658;28;20350;-73
2023/06/24 08:53:20;;;;;;;8.80;7.22;;;24.90;99.90;;;;;;5015199;28;20057;-72
2023/06/24 08:55:46;;;;;;;9.30;7.78;;;25.10;99.90;;;;;;4998183;28;20048;-72
2023/06/24 08:58:12;;;;;;;10.27;7.88;;;25.00;99.90;;;;;;5031325;28;20033;-73
2023/06/24 09:00:38;;;;;;;8.65;7.13;;;25.30;99.90;;;;;;5013893;28;20041;-74
2023/06/24 09:03:03;;;;;;;8.88;6.53;;;25.10;99.90;;;;;;4997451;28;20037;-72
2023/06/24 09:05:29;;;;;;;12.43;7.97;;;25.20;99.90;;;;;;4997303;28;20095;-73
2023/06/24 09:07:55;;;;;;;12.10;8.27;;;25.50;99.90;;;;;;5013246;28;20452;-72
2023/06/24 09:10:34;;;;;;;10.30;7.25;;;25.30;99.90;;;;;;5030978;28;20444;-72
2023/06/24 09:13:05;;;;;;;9.88;7.47;;;25.20;99.90;;;;;;5014073;28;20408;-72
2023/06/24 09:15:35;;;;;;;15.93;7.50;;;25.50;99.90;;;;;;5013941;28;20057;-72
2023/06/24 09:18:02;;;;;;;9.20;7.18;;;25.60;99.90;;;;;;5013984;28;20053;-72
2023/06/24 09:20:29;;;;;;;11.10;7.00;;;25.90;99.90;;;;;;5013313;28;20513;-72
2023/06/24 09:23:03;;;;;;;12.95;8.25;;;25.80;99.90;;;;;;5013545;28;20038;-74
2023/06/24 09:25:29;;;;;;;11.52;7.55;;;25.80;99.90;;;;;;5013446;28;20452;-73
2023/06/24 09:27:59;;;;;;;10.55;6.63;;;25.60;99.90;;;;;;5013219;28;20564;-73
2023/06/24 09:30:25;;;;;;;8.90;7.32;;;25.70;99.90;;;;;;5016214;28;20124;-72
2023/06/24 09:32:52;;;;;;;9.45;6.97;;;25.90;99.90;;;;;;5014649;28;20084;-72
2023/06/24 09:35:25;;;;;;;9.75;7.53;;;26.10;99.90;;;;;;4999104;28;20042;-72
2023/06/24 09:37:52;;;;;;;11.02;6.68;;;26.30;99.90;;;;;;5013082;28;20038;-73
2023/06/24 09:40:18;;;;;;;10.40;6.95;;;26.20;99.90;;;;;;5013237;28;20038;-72
2023/06/24 09:42:55;;;;;;;9.60;7.53;;;26.40;99.90;;;;;;5016248;28;20049;-73
2023/06/24 09:45:30;;;;;;;9.35;6.40;;;26.20;99.90;;;;;;5016924;28;20539;-72
2023/06/24 09:48:00;;;;;;;9.30;5.05;;;26.70;99.90;;;;;;5000263;28;20042;-73
2023/06/24 09:50:26;;;;;;;5.68;4.78;;;26.50;99.90;;;;;;5000432;28;20044;-72
2023/06/24 09:52:52;;;;;;;11.00;7.30;;;26.70;99.90;;;;;;5034818;28;20493;-73
2023/06/24 09:55:18;;;;;;;7.95;5.32;;;26.30;99.90;;;;;;5016774;28;20405;-73
2023/06/24 09:57:50;;;;;;;10.05;6.30;;;26.80;99.90;;;;;;5016536;28;20040;-72
2023/06/24 10:00:19;;;;;;;9.00;6.00;;;26.70;99.90;;;;;;5016680;28;20083;-72
2023/06/24 10:02:46;;;;;;;6.85;5.57;;;26.70;99.90;;;;;;5017048;28;20532;-73
2023/06/24 10:05:15;;;;;;;9.30;6.88;;;26.70;99.90;;;;;;5000523;28;20576;-72
2023/06/24 10:07:41;;;;;;;9.40;6.68;;;26.80;99.90;;;;;;5016193;28;20091;-73
2023/06/24 10:10:08;;;;;;;8.07;6.22;;;26.60;99.90;;;;;;4999952;28;20563;-73
2023/06/24 10:12:38;;;;;;;8.55;5.20;;;27.20;99.90;;;;;;5034468;28;20519;-73
2023/06/24 10:15:05;;;;;;;7.60;4.63;;;27.40;99.90;;;;;;5016479;28;20037;-73
2023/06/24 10:17:30;;;;;;;6.57;4.45;;;26.80;99.90;;;;;;5017846;28;20546;-73
2023/06/24 10:19:56;;;;;;;7.93;5.22;;;26.20;99.80;;;;;;5019696;28;20029;-74
2023/06/24 10:22:26;;;;;;;5.13;4.47;;;26.00;99.90;;;;;;5019685;28;20037;-72
2023/06/24 10:24:52;;;;;;;8.13;4.70;;;26.20;99.90;;;;;;5016832;28;20045;-72
2023/06/24 10:27:22;;;;;;;7.72;4.32;;;26.50;99.90;;;;;;4999456;28;20073;-72
2023/06/24 10:29:49;;;;;;;8.05;3.95;;;27.00;99.90;;;;;;5016299;28;20444;-72
2023/06/24 10:32:15;;;;;;;8.02;4.90;;;27.00;99.90;;;;;;5033912;28;20445;-73
2023/06/24 10:34:43;;;;;;;5.40;3.85;;;27.00;99.20;;;;;;5033855;28;20037;-72
2023/06/24 10:37:17;;;;;;;7.88;4.28;;;27.20;99.50;;;;;;5015865;28;20049;-72
2023/06/24 10:40:02;;;;;;;5.97;4.75;;;27.40;99.20;;;;;;5016204;28;20088;-73
2023/06/24 10:42:37;;;;;;;7.72;5.53;;;27.20;99.40;;;;;;5016132;28;20037;-72
2023/06/24 10:45:09;;;;;;;9.80;4.40;;;27.30;99.50;;;;;;5016056;28;20421;-73
2023/06/24 10:47:36;;;;;;;8.90;5.13;;;27.40;99.30;;;;;;5033180;28;20517;-73
2023/06/24 10:50:02;;;;;;;6.25;4.35;;;27.10;99.50;;;;;;5015617;28;20041;-73
2023/06/24 10:52:28;;;;;;;9.98;4.40;;;27.10;99.50;;;;;;5015652;28;20045;-73
2023/06/24 10:54:54;;;;;;;7.97;4.80;;;27.20;99.80;;;;;;5033561;28;20041;-73
2023/06/24 10:57:27;;;;;;;7.65;4.60;;;27.70;99.80;;;;;;5015639;28;20092;-73
2023/06/24 10:59:55;;;;;;;8.25;4.22;;;27.50;99.30;;;;;;5016047;28;20091;-72
2023/06/24 11:02:22;;;;;;;6.82;4.50;;;27.60;99.40;;;;;;4999426;28;20042;-73
2023/06/24 11:04:49;;;;;;;7.28;4.30;;;27.20;99.30;;;;;;5015765;28;20494;-73
2023/06/24 11:07:17;;;;;;;5.05;4.05;;;27.30;99.70;;;;;;5015428;28;20438;-73
2023/06/24 11:09:47;;;;;;;7.25;4.30;;;27.50;99.30;;;;;;5015525;28;20029;-72
2023/06/24 11:12:13;;;;;;;8.48;4.20;;;27.80;99.60;;;;;;5033169;28;20037;-73
2023/06/24 11:14:40;;;;;;;5.72;3.80;;;27.50;99.40;;;;;;5015551;28;20120;-72
2023/06/24 11:17:06;;;;;;;5.88;4.03;;;27.90;99.20;;;;;;5032551;28;20105;-72
2023/06/24 11:19:32;;;;;;;6.82;3.90;;;27.90;98.80;;;;;;5015167;28;20135;-73
2023/06/24 11:22:01;;;;;;;7.07;4.43;;;28.10;99.10;;;;;;5015206;28;20124;-73
2023/06/24 11:24:30;;;;;;;6.38;4.22;;;28.10;99.10;;;;;;4998804;28;20037;-72
2023/06/24 11:26:56;;;;;;;6.22;4.78;;;28.00;99.20;;;;;;5014731;28;20048;-73
2023/06/24 11:29:23;;;;;;;6.20;4.68;;;28.00;99.30;;;;;;4998429;28;20045;-73
2023/06/24 11:31:49;;;;;;;6.43;4.85;;;27.80;99.50;;;;;;5014439;28;20476;-73
2023/06/24 11:34:15;;;;;;;7.20;5.53;;;27.60;99.50;;;;;;5014979;28;20049;-73
2023/06/24 11:36:41;;;;;;;9.40;4.50;;;27.40;99.50;;;;;;5014849;28;20497;-73
2023/06/24 11:39:07;;;;;;;7.20;3.83;;;27.70;99.50;;;;;;5015009;28;20034;-73
2023/06/24 11:41:32;;;;;;;5.95;4.45;;;28.20;99.40;;;;;;4998651;28;20116;-73
2023/06/24 11:43:58;;;;;;;6.18;4.43;;;27.90;99.30;;;;;;5014863;28;20040;-74
2023/06/24 11:46:27;;;;;;;8.38;5.28;;;28.00;99.20;;;;;;5032814;28;20448;-74
2023/06/24 11:49:04;;;;;;;6.28;3.25;;;28.20;98.60;;;;;;4998099;28;20448;-74
2023/06/24 11:51:29;;;;;;;7.38;3.97;;;28.30;98.60;;;;;;5015103;28;20038;-73
2023/06/24 11:54:00;;;;;;;6.30;3.83;;;28.70;98.90;;;;;;5015173;28;20047;-73
2023/06/24 11:56:39;;;;;;;7.07;4.57;;;28.80;98.40;;;;;;5014606;28;20045;-73
2023/06/24 11:59:27;;;;;;;5.90;3.83;;;28.80;98.90;;;;;;5013863;28;20539;-73
2023/06/24 12:02:03;;;;;;;5.78;3.97;;;28.90;98.70;;;;;;5014819;28;20064;-73
2023/06/24 12:04:36;;;;;;;6.97;4.00;;;28.60;99.10;;;;;;5014298;28;20224;-73
2023/06/24 12:07:03;;;;;;;8.55;3.90;;;28.70;99.50;;;;;;5014353;28;20497;-73
2023/06/24 12:09:29;;;;;;;7.00;4.80;;;28.30;99.60;;;;;;4998097;28;20045;-72
2023/06/24 12:11:55;;;;;;;4.40;3.78;;;27.60;99.70;;;;;;5013870;28;20054;-73
2023/06/24 12:14:21;;;;;;;8.18;4.82;;;27.80;99.90;;;;;;5032184;28;20057;-73
2023/06/24 12:16:46;;;;;;;7.18;3.78;;;27.50;99.90;;;;;;5015254;28;20045;-74
2023/06/24 12:19:12;;;;;;;4.47;3.75;;;27.10;99.90;;;;;;5033393;28;20068;-73
2023/06/24 12:21:38;;;;;;;3.35;3.05;;;27.40;99.90;;;;;;5015955;28;20037;-72
2023/06/24 12:24:04;;;;;;;6.18;3.25;;;27.50;99.90;;;;;;5015556;28;20048;-73
2023/06/24 12:26:31;;;;;;;4.75;3.55;;;27.50;99.90;;;;;;5015669;28;20053;-74
2023/06/24 12:28:57;;;;;;;6.30;3.35;;;27.40;99.90;;;;;;5014487;28;20120;-73
2023/06/24 12:31:28;;;;;;;2.90;2.50;;;27.40;99.90;;;;;;5014438;28;20128;-74
2023/06/24 12:33:57;;;;;;;5.43;3.05;;;27.80;99.90;;;;;;4999683;28;20120;-73
2023/06/24 12:36:23;;;;;;;8.07;2.72;;;27.50;99.90;;;;;;5015590;28;20045;-74
2023/06/24 12:38:51;;;;;;;7.82;2.80;;;27.50;99.90;;;;;;5017495;28;20035;-74